Time;durP1;ratioP1;P1;durP2;ratioP2;P2;SDS_P1;SDS_P2;PMS_P1;PMS_P2;Temp;Humidity;BMP_temperature;BMP_pressure;BME280_temperature;BME280_humidity;BME280_pressure;Samples;Min_cycle;Max_cycle;Signal;HPM_P1;HPM_P2
2022/11/28 00:00:09;;;;;;;35.30;9.07;;;;;;;;;;6275648;22;20015;-95
2022/11/28 00:02:37;;;;;;;30.67;8.98;;;;;;;;;;6276635;22;20007;-95
2022/11/28 00:05:21;;;;;;;;;;;;;;;;;;;;;
2022/11/28 00:08:11;;;;;;;34.83;9.40;;;;;;;;;;6302563;22;20074;-96
2022/11/28 00:10:54;;;;;;;45.22;10.45;;;;;;;;;;6276149;22;20090;-96
2022/11/28 00:13:31;;;;;;;41.05;9.32;;;;;;;;;;6298021;22;20011;-96
2022/11/28 00:16:14;;;;;;;31.50;10.73;;;;;;;;;;6306188;22;20003;-96
2022/11/28 00:18:42;;;;;;;36.13;10.10;;;;;;;;;;6304367;22;20003;-95
2022/11/28 00:21:14;;;;;;;33.13;9.55;;;;;;;;;;6302866;22;20007;-96
2022/11/28 00:23:41;;;;;;;38.33;8.90;;;;;;;;;;6278555;22;20007;-96
2022/11/28 00:26:20;;;;;;;40.67;9.60;;;;;;;;;;6276076;22;20034;-93
2022/11/28 00:28:53;;;;;;;39.63;11.25;;;;;;;;;;6275020;22;20072;-94
2022/11/28 00:31:25;;;;;;;40.03;10.10;;;;;;;;;;6301099;22;20084;-94
2022/11/28 00:37:18;;;;;;;40.80;10.27;;;;;;;;;;6304719;22;20011;-93
2022/11/28 00:40:28;;;;;;;35.10;10.48;;;;;;;;;;6299605;22;20003;-94
2022/11/28 00:43:01;;;;;;;40.22;10.75;;;;;;;;;;6304999;22;20011;-93
2022/11/28 00:45:57;;;;;;;42.75;10.88;;;;;;;;;;6304414;22;20078;-94
2022/11/28 00:48:26;;;;;;;45.28;11.07;;;;;;;;;;6277426;22;20092;-93
2022/11/28 00:51:03;;;;;;;42.75;11.60;;;;;;;;;;6303489;22;20018;-94
2022/11/28 00:53:41;;;;;;;42.15;10.93;;;;;;;;;;6304204;22;20065;-95
2022/11/28 00:56:14;;;;;;;39.45;11.85;;;;;;;;;;6303745;22;20003;-94
2022/11/28 00:58:43;;;;;;;;;;;;;;;;;;6297484;22;20033;-96
2022/11/28 01:01:21;;;;;;;45.42;11.63;;;;;;;;;;6278545;22;19902;-94
2022/11/28 01:03:52;;;;;;;38.67;12.27;;;;;;;;;;6277967;22;20039;-94
2022/11/28 01:06:39;;;;;;;37.13;10.95;;;;;;;;;;6303673;22;20011;-94
2022/11/28 01:09:20;;;;;;;37.47;11.40;;;;;;;;;;6277821;22;20003;-95
2022/11/28 01:11:53;;;;;;;37.22;10.80;;;;;;;;;;6304294;22;20682;-96
2022/11/28 01:14:23;;;;;;;36.90;11.85;;;;;;;;;;6308415;22;20012;-95
2022/11/28 01:16:55;;;;;;;37.92;10.38;;;;;;;;;;6298168;22;20428;-95
2022/11/28 01:19:53;;;;;;;41.25;11.90;;;;;;;;;;6306987;22;20011;-95
2022/11/28 01:22:26;;;;;;;35.38;8.60;;;;;;;;;;6280966;22;20026;-96
2022/11/28 01:25:09;;;;;;;;;;;;;;;;;;6280295;22;20009;-96
2022/11/28 01:27:37;;;;;;;36.00;9.27;;;;;;;;;;6279656;22;19903;-95
2022/11/28 01:30:03;;;;;;;39.47;9.80;;;;;;;;;;6279206;22;20003;-95
2022/11/28 01:32:38;;;;;;;33.13;9.45;;;;;;;;;;6279360;22;19999;-96
2022/11/28 01:35:04;;;;;;;28.45;8.82;;;;;;;;;;6276361;22;20038;-95
2022/11/28 01:37:41;;;;;;;28.58;8.25;;;;;;;;;;6276860;22;20030;-96
2022/11/28 01:40:10;;;;;;;31.02;9.48;;;;;;;;;;6302741;22;20011;-96
2022/11/28 01:42:38;;;;;;;24.67;9.15;;;;;;;;;;6276708;22;20314;-95
2022/11/28 01:45:38;;;;;;;33.65;8.60;;;;;;;;;;6276615;22;20008;-96
2022/11/28 01:48:10;;;;;;;28.88;7.97;;;;;;;;;;6303500;22;20003;-96
2022/11/28 01:50:44;;;;;;;27.15;8.02;;;;;;;;;;6275447;22;20129;-96
2022/11/28 01:53:16;;;;;;;27.73;7.53;;;;;;;;;;6276272;22;20011;-96
2022/11/28 01:56:04;;;;;;;29.23;7.38;;;;;;;;;;6275478;22;20748;-95
2022/11/28 01:58:32;;;;;;;29.95;8.05;;;;;;;;;;6147405;23;20013;-95
2022/11/28 02:01:02;;;;;;;25.23;7.30;;;;;;;;;;6123401;23;20021;-96
2022/11/28 02:03:49;;;;;;;27.30;6.45;;;;;;;;;;6125211;23;20545;-96
2022/11/28 02:06:24;;;;;;;28.42;7.75;;;;;;;;;;6123639;23;20002;-96
2022/11/28 02:08:53;;;;;;;25.08;7.30;;;;;;;;;;6125665;23;20014;-96
2022/11/28 02:11:44;;;;;;;33.08;7.53;;;;;;;;;;6127173;23;20084;-95
2022/11/28 02:15:08;;;;;;;22.63;6.93;;;;;;;;;;6145128;23;20015;-93
2022/11/28 02:17:44;;;;;;;26.27;6.80;;;;;;;;;;6144875;23;20040;-94
2022/11/28 02:20:14;;;;;;;26.05;6.40;;;;;;;;;;6126463;23;20002;-95
2022/11/28 02:26:07;;;;;;;24.17;6.45;;;;;;;;;;6106865;23;20010;-96
2022/11/28 02:28:47;;;;;;;25.30;6.20;;;;;;;;;;6091248;23;20012;-95
2022/11/28 02:31:27;;;;;;;29.67;7.07;;;;;;;;;;6093217;23;20010;-95
2022/11/28 02:33:56;;;;;;;27.13;7.18;;;;;;;;;;6093530;23;20011;-95
2022/11/28 02:36:25;;;;;;;22.55;6.18;;;;;;;;;;6137943;23;20460;-96
2022/11/28 02:39:09;;;;;;;25.08;6.05;;;;;;;;;;6151384;23;20017;-96
2022/11/28 02:41:44;;;;;;;25.38;6.78;;;;;;;;;;6151065;23;20029;-94
2022/11/28 02:44:25;;;;;;;18.42;6.50;;;;;;;;;;6151998;23;20027;-96
2022/11/28 02:47:10;;;;;;;24.30;7.45;;;;;;;;;;6152170;23;20010;-96
2022/11/28 02:49:43;;;;;;;25.17;6.47;;;;;;;;;;6153584;23;20063;-96
2022/11/28 02:52:11;;;;;;;24.60;7.57;;;;;;;;;;6181213;23;20009;-94
2022/11/28 02:54:39;;;;;;;25.75;6.72;;;;;;;;;;6182194;23;20013;-95
2022/11/28 02:57:15;;;;;;;22.05;7.10;;;;;;;;;;6181539;23;20049;-95
2022/11/28 02:59:46;;;;;;;26.25;6.88;;;;;;;;;;6181005;23;20331;-95
2022/11/28 03:02:15;;;;;;;26.02;6.80;;;;;;;;;;6206927;22;20019;-96
2022/11/28 03:04:44;;;;;;;21.27;5.82;;;;;;;;;;6287796;22;20019;-96
2022/11/28 03:07:32;;;;;;;27.88;8.60;;;;;;;;;;6302306;22;20003;-96
2022/11/28 03:10:29;;;;;;;25.58;6.50;;;;;;;;;;6288864;22;19999;-94
2022/11/28 03:13:06;;;;;;;22.95;7.28;;;;;;;;;;6297500;22;20076;-96
2022/11/28 03:15:51;;;;;;;20.30;6.25;;;;;;;;;;6306342;22;19999;-96
2022/11/28 03:18:25;;;;;;;28.65;6.75;;;;;;;;;;6305457;22;20327;-96
2022/11/28 03:20:54;;;;;;;24.00;6.53;;;;;;;;;;6306466;22;20200;-96
2022/11/28 03:23:24;;;;;;;24.30;6.78;;;;;;;;;;6306727;22;20344;-95
2022/11/28 03:25:49;;;;;;;22.35;7.00;;;;;;;;;;6306563;22;20007;-96
2022/11/28 03:28:24;;;;;;;30.13;6.87;;;;;;;;;;6305209;22;20014;-96
2022/11/28 03:31:07;;;;;;;21.20;6.43;;;;;;;;;;6305370;22;20234;-95
2022/11/28 03:33:35;;;;;;;27.42;6.55;;;;;;;;;;6305970;22;19996;-95
2022/11/28 03:36:20;;;;;;;27.30;6.40;;;;;;;;;;6305032;22;20018;-95
2022/11/28 03:38:52;;;;;;;21.35;7.22;;;;;;;;;;6305267;22;20082;-96
2022/11/28 03:41:24;;;;;;;19.70;6.03;;;;;;;;;;6305507;22;20017;-96
2022/11/28 03:43:52;;;;;;;28.77;6.47;;;;;;;;;;6306623;22;20153;-95
2022/11/28 03:46:20;;;;;;;22.60;6.22;;;;;;;;;;6324121;22;19995;-96
2022/11/28 03:48:47;;;;;;;21.00;5.57;;;;;;;;;;6324582;22;20004;-96
2022/11/28 03:54:21;;;;;;;19.55;6.18;;;;;;;;;;6308425;22;20436;-95
2022/11/28 03:56:52;;;;;;;25.02;5.90;;;;;;;;;;6318475;22;19999;-96
2022/11/28 03:59:24;;;;;;;30.45;7.55;;;;;;;;;;6328027;22;19995;-96
2022/11/28 04:01:57;;;;;;;30.83;7.28;;;;;;;;;;6309453;22;20010;-96
2022/11/28 04:04:41;;;;;;;29.02;6.85;;;;;;;;;;6307280;22;20011;-96
2022/11/28 04:07:20;;;;;;;23.33;7.10;;;;;;;;;;6307246;22;20035;-96
2022/11/28 04:09:52;;;;;;;25.02;6.03;;;;;;;;;;6306579;22;19999;-96
2022/11/28 04:12:31;;;;;;;20.53;6.33;;;;;;;;;;6307791;22;20000;-95
2022/11/28 04:15:10;;;;;;;22.23;6.60;;;;;;;;;;6306566;22;20443;-95
2022/11/28 04:17:49;;;;;;;30.15;7.22;;;;;;;;;;6306850;22;20010;-96
2022/11/28 04:20:29;;;;;;;23.20;6.57;;;;;;;;;;6306443;22;20035;-96
2022/11/28 04:22:56;;;;;;;19.67;6.75;;;;;;;;;;6306543;22;20047;-96
2022/11/28 04:25:24;;;;;;;20.75;6.32;;;;;;;;;;6307038;22;20027;-95
2022/11/28 04:27:54;;;;;;;29.00;6.35;;;;;;;;;;6306677;22;20429;-96
2022/11/28 04:30:21;;;;;;;23.42;6.75;;;;;;;;;;6305171;22;20425;-96
2022/11/28 04:32:56;;;;;;;25.05;7.57;;;;;;;;;;6307592;22;20003;-96
2022/11/28 04:35:24;;;;;;;24.90;7.13;;;;;;;;;;6306516;22;20083;-96
2022/11/28 04:37:50;;;;;;;24.35;7.88;;;;;;;;;;6307147;22;20019;-96
2022/11/28 04:40:17;;;;;;;31.58;8.05;;;;;;;;;;6305991;22;20133;-96
2022/11/28 04:42:47;;;;;;;24.38;6.72;;;;;;;;;;6306141;22;20007;-96
2022/11/28 04:45:15;;;;;;;20.65;7.47;;;;;;;;;;6306969;22;20011;-96
2022/11/28 04:47:40;;;;;;;25.00;7.70;;;;;;;;;;6305541;22;20090;-96
2022/11/28 04:50:07;;;;;;;25.63;7.90;;;;;;;;;;6306293;22;19995;-96
2022/11/28 04:52:41;;;;;;;30.90;8.15;;;;;;;;;;6308092;22;20063;-96
2022/11/28 04:55:28;;;;;;;27.27;7.93;;;;;;;;;;6310222;22;20072;-95
2022/11/28 04:58:15;;;;;;;23.38;7.45;;;;;;;;;;6308434;22;20010;-96
2022/11/28 05:00:40;;;;;;;26.38;6.95;;;;;;;;;;6307114;22;20014;-96
2022/11/28 05:03:06;;;;;;;30.40;8.32;;;;;;;;;;6306793;22;20019;-96
2022/11/28 05:05:50;;;;;;;30.05;7.97;;;;;;;;;;6307077;22;20822;-96
2022/11/28 05:08:16;;;;;;;23.67;8.43;;;;;;;;;;6306636;22;20584;-95
2022/11/28 05:10:41;;;;;;;23.92;7.90;;;;;;;;;;6306154;22;19999;-95
2022/11/28 05:13:20;;;;;;;19.92;6.97;;;;;;;;;;6307475;22;20312;-96
2022/11/28 05:15:49;;;;;;;30.63;7.38;;;;;;;;;;6306884;22;20007;-96
2022/11/28 05:18:19;;;;;;;20.13;7.43;;;;;;;;;;6307087;22;20011;-96
2022/11/28 05:20:47;;;;;;;27.48;8.55;;;;;;;;;;6306559;22;20032;-96
2022/11/28 05:23:12;;;;;;;24.55;8.05;;;;;;;;;;6306238;22;20061;-95
2022/11/28 05:25:38;;;;;;;24.17;7.57;;;;;;;;;;6307584;22;19995;-96
2022/11/28 05:28:11;;;;;;;24.33;8.05;;;;;;;;;;6305177;22;20312;-96
2022/11/28 05:30:36;;;;;;;23.63;7.50;;;;;;;;;;6305261;22;20301;-96
2022/11/28 05:33:02;;;;;;;23.48;6.60;;;;;;;;;;6304818;22;20007;-96
2022/11/28 05:35:27;;;;;;;27.25;7.05;;;;;;;;;;6305022;22;20022;-96
2022/11/28 05:37:55;;;;;;;19.00;6.70;;;;;;;;;;6305353;22;20007;-96
2022/11/28 05:40:20;;;;;;;20.75;6.32;;;;;;;;;;6306359;22;20011;-96
2022/11/28 05:42:45;;;;;;;20.58;6.50;;;;;;;;;;6305101;22;20007;-96
2022/11/28 05:45:12;;;;;;;22.17;6.03;;;;;;;;;;6305346;22;20007;-96
2022/11/28 05:47:37;;;;;;;23.50;6.03;;;;;;;;;;6303993;22;20227;-96
2022/11/28 05:50:03;;;;;;;20.50;5.80;;;;;;;;;;6304135;22;20027;-96
2022/11/28 05:52:31;;;;;;;21.70;6.45;;;;;;;;;;6305734;22;20072;-96
2022/11/28 05:54:56;;;;;;;23.70;7.30;;;;;;;;;;6305454;22;20061;-96
2022/11/28 05:57:21;;;;;;;20.90;6.60;;;;;;;;;;6306003;22;20331;-96
2022/11/28 05:59:47;;;;;;;24.70;7.68;;;;;;;;;;6305950;22;20012;-96
2022/11/28 06:02:12;;;;;;;22.20;6.60;;;;;;;;;;6306542;22;20099;-96
2022/11/28 06:04:40;;;;;;;23.33;7.32;;;;;;;;;;6316185;22;20259;-95
2022/11/28 06:07:07;;;;;;;24.05;6.57;;;;;;;;;;6332544;22;20011;-96
2022/11/28 06:09:36;;;;;;;21.75;6.03;;;;;;;;;;6312648;22;19995;-96
2022/11/28 06:12:02;;;;;;;26.00;6.78;;;;;;;;;;6307103;22;20004;-96
2022/11/28 06:14:27;;;;;;;22.00;6.78;;;;;;;;;;6308365;22;20018;-96
2022/11/28 06:16:53;;;;;;;20.45;7.03;;;;;;;;;;6330154;22;20011;-96
2022/11/28 06:19:18;;;;;;;21.57;6.67;;;;;;;;;;6327523;22;20443;-96
2022/11/28 06:21:43;;;;;;;61.00;9.88;;;;;;;;;;6306523;22;20588;-96
2022/11/28 06:24:09;;;;;;;26.08;7.50;;;;;;;;;;6305686;22;20015;-96
2022/11/28 06:26:35;;;;;;;34.55;7.95;;;;;;;;;;6306637;22;20007;-96
2022/11/28 06:29:05;;;;;;;63.08;9.40;;;;;;;;;;6306734;22;20081;-96
2022/11/28 06:31:30;;;;;;;62.88;10.20;;;;;;;;;;6308053;22;20007;-95
2022/11/28 06:33:56;;;;;;;22.43;6.60;;;;;;;;;;6294295;22;20780;-93
2022/11/28 06:36:22;;;;;;;23.52;6.95;;;;;;;;;;6277646;22;20217;-95
2022/11/28 06:38:47;;;;;;;21.15;6.35;;;;;;;;;;6280424;22;20172;-94
2022/11/28 06:41:14;;;;;;;25.02;6.85;;;;;;;;;;6278767;22;19995;-94
2022/11/28 06:43:40;;;;;;;21.10;5.85;;;;;;;;;;6278180;22;20016;-96
2022/11/28 06:46:17;;;;;;;19.48;5.75;;;;;;;;;;6305385;22;20513;-94
2022/11/28 06:48:45;;;;;;;17.67;5.78;;;;;;;;;;6278755;22;20001;-94
2022/11/28 06:51:12;;;;;;;19.35;6.45;;;;;;;;;;6279252;22;20367;-94
2022/11/28 06:56:52;;;;;;;40.40;7.60;;;;;;;;;;6296389;22;20014;-94
2022/11/28 06:59:17;;;;;;;25.48;6.45;;;;;;;;;;6309741;22;20019;-95
2022/11/28 07:01:42;;;;;;;23.15;7.47;;;;;;;;;;6281442;22;20030;-94
2022/11/28 07:04:08;;;;;;;21.77;5.50;;;;;;;;;;6311298;22;19991;-95
2022/11/28 07:06:34;;;;;;;24.05;6.00;;;;;;;;;;6310203;22;20007;-93
2022/11/28 07:08:59;;;;;;;18.58;6.55;;;;;;;;;;6282878;22;19999;-95
2022/11/28 07:11:26;;;;;;;23.00;5.97;;;;;;;;;;6309814;22;19999;-94
2022/11/28 07:13:53;;;;;;;20.92;6.30;;;;;;;;;;6281720;22;20000;-94
2022/11/28 07:16:20;;;;;;;26.55;7.30;;;;;;;;;;6281289;22;20053;-94
2022/11/28 07:18:46;;;;;;;24.42;6.72;;;;;;;;;;6284650;22;20000;-95
2022/11/28 07:21:15;;;;;;;146.23;14.73;;;;;;;;;;6285270;22;20042;-95
2022/11/28 07:23:41;;;;;;;22.25;7.78;;;;;;;;;;6283289;22;20782;-94
2022/11/28 07:26:06;;;;;;;18.98;6.38;;;;;;;;;;6282453;22;20003;-95
2022/11/28 07:28:33;;;;;;;21.02;7.05;;;;;;;;;;6282682;22;20081;-93
2022/11/28 07:31:03;;;;;;;23.50;7.05;;;;;;;;;;6281322;22;20007;-93
2022/11/28 07:33:29;;;;;;;25.50;6.43;;;;;;;;;;6266580;22;20028;-93
2022/11/28 07:36:00;;;;;;;41.45;7.28;;;;;;;;;;6247571;22;20103;-95
2022/11/28 07:38:25;;;;;;;23.02;6.25;;;;;;;;;;6251679;22;20004;-94
2022/11/28 07:40:50;;;;;;;27.13;6.72;;;;;;;;;;6251689;22;20016;-95
2022/11/28 07:43:17;;;;;;;19.83;5.60;;;;;;;;;;6252169;22;20429;-95
2022/11/28 07:45:43;;;;;;;19.25;6.13;;;;;;;;;;6251461;22;20253;-92
2022/11/28 07:48:08;;;;;;;143.50;12.98;;;;;;;;;;6251075;22;20491;-95
2022/11/28 07:50:39;;;;;;;23.45;6.05;;;;;;;;;;6252464;22;20094;-94
2022/11/28 07:53:04;;;;;;;21.50;5.47;;;;;;;;;;6252621;22;20023;-94
2022/11/28 07:55:30;;;;;;;23.45;5.50;;;;;;;;;;6250397;22;20038;-93
2022/11/28 07:57:58;;;;;;;17.50;4.97;;;;;;;;;;6250511;22;20432;-93
2022/11/28 08:00:24;;;;;;;19.35;5.50;;;;;;;;;;6250392;22;20011;-93
2022/11/28 08:02:49;;;;;;;15.50;4.93;;;;;;;;;;6250059;22;20736;-93
2022/11/28 08:05:15;;;;;;;18.75;5.82;;;;;;;;;;6255462;22;20010;-93
2022/11/28 08:07:40;;;;;;;16.55;5.13;;;;;;;;;;6252717;22;20090;-94
2022/11/28 08:10:06;;;;;;;17.98;5.63;;;;;;;;;;6254086;22;20003;-94
2022/11/28 08:12:32;;;;;;;18.48;6.43;;;;;;;;;;6253228;22;20512;-94
2022/11/28 08:15:00;;;;;;;21.70;5.88;;;;;;;;;;6247573;22;20103;-93
2022/11/28 08:17:25;;;;;;;19.00;5.75;;;;;;;;;;6251769;22;20008;-93
2022/11/28 08:19:51;;;;;;;18.45;5.53;;;;;;;;;;6250549;22;20708;-93
2022/11/28 08:22:16;;;;;;;20.08;5.65;;;;;;;;;;6278489;22;20019;-94
2022/11/28 08:24:41;;;;;;;17.52;5.25;;;;;;;;;;6252789;22;20008;-93
2022/11/28 08:27:07;;;;;;;21.05;5.22;;;;;;;;;;6268717;22;20012;-93
2022/11/28 08:29:34;;;;;;;21.00;5.60;;;;;;;;;;6268163;22;20308;-94
2022/11/28 08:32:00;;;;;;;22.33;5.30;;;;;;;;;;6258108;22;20007;-93
2022/11/28 08:34:26;;;;;;;18.33;5.07;;;;;;;;;;6279734;22;20026;-94
2022/11/28 08:36:51;;;;;;;20.52;4.95;;;;;;;;;;6296525;22;20010;-93
2022/11/28 08:39:17;;;;;;;19.67;5.47;;;;;;;;;;6328810;22;20003;-93
2022/11/28 08:41:43;;;;;;;16.15;5.00;;;;;;;;;;6321405;22;20006;-92
2022/11/28 08:44:08;;;;;;;12.88;4.60;;;;;;;;;;6287727;22;20011;-93
2022/11/28 08:46:35;;;;;;;17.75;4.57;;;;;;;;;;6284671;22;20046;-92
2022/11/28 08:49:00;;;;;;;16.70;4.95;;;;;;;;;;6284398;22;20004;-93
2022/11/28 08:51:25;;;;;;;14.35;4.57;;;;;;;;;;6285693;22;20010;-93
2022/11/28 08:53:52;;;;;;;17.23;5.03;;;;;;;;;;6285650;22;20007;-93
2022/11/28 08:56:18;;;;;;;19.00;5.53;;;;;;;;;;6286987;22;20090;-93
2022/11/28 08:58:43;;;;;;;18.83;5.32;;;;;;;;;;6315769;22;20007;-94
2022/11/28 09:01:18;;;;;;;17.90;5.78;;;;;;;;;;6287034;22;20029;-93
2022/11/28 09:03:44;;;;;;;14.80;5.25;;;;;;;;;;6288430;22;20003;-92
2022/11/28 09:06:10;;;;;;;17.63;5.18;;;;;;;;;;6290563;22;19999;-92
2022/11/28 09:08:35;;;;;;;13.68;5.03;;;;;;;;;;6320650;22;20002;-92
2022/11/28 09:11:00;;;;;;;18.42;5.43;;;;;;;;;;6319119;22;20003;-92
2022/11/28 09:13:26;;;;;;;16.55;5.57;;;;;;;;;;6290358;22;20070;-91
2022/11/28 09:15:51;;;;;;;17.30;5.65;;;;;;;;;;6292348;22;20003;-91
2022/11/28 09:18:17;;;;;;;17.33;5.00;;;;;;;;;;6317572;22;20320;-92
2022/11/28 09:20:42;;;;;;;16.80;6.03;;;;;;;;;;6285113;22;20006;-91
2022/11/28 09:23:08;;;;;;;22.38;6.50;;;;;;;;;;6309245;22;20157;-91
2022/11/28 09:25:34;;;;;;;16.38;5.60;;;;;;;;;;6305556;22;20386;-92
2022/11/28 09:28:00;;;;;;;17.80;5.82;;;;;;;;;;6280434;22;20011;-93
2022/11/28 09:30:27;;;;;;;21.95;5.22;;;;;;;;;;6280877;22;20003;-92
2022/11/28 09:32:53;;;;;;;16.83;5.60;;;;;;;;;;6305580;22;20053;-93
2022/11/28 09:35:19;;;;;;;12.27;4.05;;;;;;;;;;6319620;22;20029;-91
2022/11/28 09:37:51;;;;;;;12.93;4.20;;;;;;;;;;6315747;22;20033;-92
2022/11/28 09:40:29;;;;;;;13.43;3.83;;;;;;;;;;6290359;22;20360;-91
2022/11/28 09:42:54;;;;;;;15.93;3.85;;;;;;;;;;6282452;22;20015;-92
2022/11/28 09:45:22;;;;;;;13.18;4.15;;;;;;;;;;6280897;22;20018;-91
2022/11/28 09:47:49;;;;;;;12.65;3.90;;;;;;;;;;6287081;22;20011;-91
2022/11/28 09:50:24;;;;;;;12.95;4.30;;;;;;;;;;6313921;22;20032;-90
2022/11/28 09:53:10;;;;;;;14.98;4.07;;;;;;;;;;6312599;22;20003;-92
2022/11/28 09:55:38;;;;;;;14.95;4.28;;;;;;;;;;6283252;22;20003;-91
2022/11/28 09:58:07;;;;;;;16.95;4.47;;;;;;;;;;6284380;22;20015;-92
2022/11/28 10:01:00;;;;;;;12.23;4.65;;;;;;;;;;6286117;22;20324;-90
2022/11/28 10:03:42;;;;;;;14.00;4.25;;;;;;;;;;6254429;22;20075;-90
2022/11/28 10:06:26;;;;;;;17.85;4.40;;;;;;;;;;6284329;22;20003;-90
2022/11/28 10:08:54;;;;;;;12.13;4.10;;;;;;;;;;6312859;22;19995;-90
2022/11/28 10:11:43;;;;;;;12.73;3.85;;;;;;;;;;6312047;22;20044;-92
2022/11/28 10:14:08;;;;;;;13.70;3.97;;;;;;;;;;6286511;22;20019;-92
2022/11/28 10:16:34;;;;;;;16.52;4.07;;;;;;;;;;6285131;22;20045;-91
2022/11/28 10:19:02;;;;;;;12.40;4.28;;;;;;;;;;6286696;22;20348;-91
2022/11/28 10:21:39;;;;;;;12.23;4.15;;;;;;;;;;6286562;22;20086;-91
2022/11/28 10:24:11;;;;;;;13.55;4.03;;;;;;;;;;6285867;22;19999;-92
2022/11/28 10:26:37;;;;;;;11.93;3.67;;;;;;;;;;6285988;22;20007;-91
2022/11/28 10:29:25;;;;;;;15.43;4.18;;;;;;;;;;6309926;22;20404;-92
2022/11/28 10:31:53;;;;;;;13.60;4.30;;;;;;;;;;6309373;22;20452;-91
2022/11/28 10:34:23;;;;;;;15.02;4.47;;;;;;;;;;6313022;22;20015;-91
2022/11/28 10:37:00;;;;;;;11.60;3.95;;;;;;;;;;6314965;22;19999;-92
2022/11/28 10:39:26;;;;;;;13.18;4.50;;;;;;;;;;6282345;22;20004;-92
2022/11/28 10:42:10;;;;;;;17.42;4.55;;;;;;;;;;6295739;22;20006;-91
2022/11/28 10:44:41;;;;;;;14.77;4.30;;;;;;;;;;6332569;22;19995;-90
2022/11/28 10:47:12;;;;;;;12.35;4.00;;;;;;;;;;6313472;22;20007;-91
2022/11/28 10:49:40;;;;;;;13.65;4.45;;;;;;;;;;6309195;22;19995;-93
2022/11/28 10:52:05;;;;;;;13.50;4.50;;;;;;;;;;6285050;22;20003;-92
2022/11/28 10:54:37;;;;;;;11.52;3.97;;;;;;;;;;6329348;22;19991;-92
2022/11/28 10:57:06;;;;;;;16.38;4.28;;;;;;;;;;6322706;22;20078;-93
2022/11/28 10:59:41;;;;;;;18.75;4.25;;;;;;;;;;6308962;22;20026;-93
2022/11/28 11:02:39;;;;;;;14.27;4.10;;;;;;;;;;6304945;22;20079;-92
2022/11/28 11:05:05;;;;;;;11.07;3.70;;;;;;;;;;6222961;22;20027;-92
2022/11/28 11:07:31;;;;;;;14.38;4.25;;;;;;;;;;6309468;22;20401;-92
2022/11/28 11:10:16;;;;;;;14.98;4.32;;;;;;;;;;6280581;22;20000;-93
2022/11/28 11:12:42;;;;;;;15.38;4.22;;;;;;;;;;6280399;22;20064;-94
2022/11/28 11:15:17;;;;;;;12.90;4.35;;;;;;;;;;6280498;22;20008;-92
2022/11/28 11:17:42;;;;;;;14.65;4.03;;;;;;;;;;6280268;22;20578;-92
2022/11/28 11:20:24;;;;;;;14.00;3.95;;;;;;;;;;6280295;22;20081;-94
2022/11/28 11:22:53;;;;;;;16.08;4.45;;;;;;;;;;6281496;22;20020;-92
2022/11/28 11:25:19;;;;;;;15.65;4.40;;;;;;;;;;6281525;22;20027;-92
2022/11/28 11:27:53;;;;;;;13.60;4.00;;;;;;;;;;6280620;22;20618;-91
2022/11/28 11:30:18;;;;;;;;;;;;;;;;;;6281589;22;19999;-93
2022/11/28 11:32:47;;;;;;;15.00;4.57;;;;;;;;;;6276113;22;19930;-95
2022/11/28 11:35:23;;;;;;;14.88;4.13;;;;;;;;;;6307232;22;20718;-92
2022/11/28 11:37:49;;;;;;;13.45;3.97;;;;;;;;;;6306067;22;20016;-91
2022/11/28 11:40:20;;;;;;;13.68;3.85;;;;;;;;;;6308276;22;20011;-92
2022/11/28 11:42:56;;;;;;;18.98;4.15;;;;;;;;;;6281036;22;20056;-93
2022/11/28 11:45:23;;;;;;;16.42;4.28;;;;;;;;;;6306319;22;20003;-93
2022/11/28 11:47:49;;;;;;;14.43;4.60;;;;;;;;;;6306114;22;20010;-92
2022/11/28 11:50:18;;;;;;;15.32;4.75;;;;;;;;;;6307489;22;20023;-93
2022/11/28 11:52:58;;;;;;;17.08;4.75;;;;;;;;;;6304912;22;20015;-93
2022/11/28 11:55:24;;;;;;;13.27;4.20;;;;;;;;;;6308537;22;20004;-93
2022/11/28 11:57:51;;;;;;;15.82;4.30;;;;;;;;;;6279464;22;20011;-93
2022/11/28 12:00:21;;;;;;;18.83;5.07;;;;;;;;;;6303201;22;20010;-92
2022/11/28 12:03:01;;;;;;;17.05;4.72;;;;;;;;;;6302003;22;20086;-92
2022/11/28 12:05:48;;;;;;;13.73;4.35;;;;;;;;;;6305511;22;20015;-92
2022/11/28 12:08:13;;;;;;;14.70;4.40;;;;;;;;;;6304821;22;20057;-92
2022/11/28 12:10:42;;;;;;;12.02;3.92;;;;;;;;;;6278879;22;20019;-92
2022/11/28 12:13:14;;;;;;;17.38;4.20;;;;;;;;;;6304382;22;20018;-92
2022/11/28 12:15:42;;;;;;;14.23;4.25;;;;;;;;;;6304554;22;20010;-92
2022/11/28 12:18:15;;;;;;;17.25;4.15;;;;;;;;;;6275782;22;20087;-92
2022/11/28 12:20:52;;;;;;;18.10;4.60;;;;;;;;;;6279726;22;20090;-93
2022/11/28 12:23:27;;;;;;;14.40;4.78;;;;;;;;;;6303856;22;20014;-92
2022/11/28 12:25:56;;;;;;;17.55;3.90;;;;;;;;;;6306827;22;20015;-94
2022/11/28 12:28:27;;;;;;;15.20;4.30;;;;;;;;;;6282814;22;20019;-94
2022/11/28 12:31:11;;;;;;;13.00;3.47;;;;;;;;;;6307044;22;20023;-94
2022/11/28 12:33:46;;;;;;;12.38;2.97;;;;;;;;;;6269829;22;20015;-95
2022/11/28 12:36:28;;;;;;;14.10;3.90;;;;;;;;;;6252097;22;20443;-92
2022/11/28 12:39:02;;;;;;;12.27;3.03;;;;;;;;;;6277476;22;20397;-92
2022/11/28 12:41:39;;;;;;;11.60;2.97;;;;;;;;;;6278603;22;20011;-93
2022/11/28 12:44:04;;;;;;;9.65;2.55;;;;;;;;;;6252704;22;20016;-95
2022/11/28 12:46:51;;;;;;;12.03;2.83;;;;;;;;;;6252398;22;20379;-93
2022/11/28 12:49:38;;;;;;;12.00;2.97;;;;;;;;;;6278209;22;20209;-94
2022/11/28 12:52:33;;;;;;;10.88;2.70;;;;;;;;;;6279291;22;20000;-94
2022/11/28 12:55:17;;;;;;;10.57;3.00;;;;;;;;;;6256863;22;20011;-94
2022/11/28 12:57:48;;;;;;;12.30;3.15;;;;;;;;;;6292352;22;20002;-94
2022/11/28 13:00:18;;;;;;;13.25;3.13;;;;;;;;;;6274018;22;19991;-92
2022/11/28 13:02:43;;;;;;;18.20;3.20;;;;;;;;;;6250775;22;20217;-93
2022/11/28 13:05:29;;;;;;;12.48;3.40;;;;;;;;;;6253541;22;20073;-93
2022/11/28 13:08:12;;;;;;;14.18;3.42;;;;;;;;;;6256259;22;19996;-92
2022/11/28 13:10:38;;;;;;;;;;;;;;;;;;6272138;22;19984;-92
2022/11/28 13:13:07;;;;;;;11.70;3.00;;;;;;;;;;6282489;22;19915;-93
2022/11/28 13:15:39;;;;;;;10.13;2.83;;;;;;;;;;6251296;22;20011;-93
2022/11/28 13:18:18;;;;;;;15.87;3.80;;;;;;;;;;6250626;22;19999;-94
2022/11/28 13:20:56;;;;;;;13.55;3.60;;;;;;;;;;6250509;22;20012;-93
2022/11/28 13:23:21;;;;;;;14.60;4.13;;;;;;;;;;6252265;22;20012;-94
2022/11/28 13:25:50;;;;;;;15.32;3.90;;;;;;;;;;6250520;22;20605;-94
2022/11/28 13:28:18;;;;;;;13.23;3.88;;;;;;;;;;6277997;22;20007;-94
2022/11/28 13:30:49;;;;;;;14.65;4.10;;;;;;;;;;6253535;22;20054;-95
2022/11/28 13:33:14;;;;;;;16.58;5.22;;;;;;;;;;6313227;22;20030;-94
2022/11/28 13:35:42;;;;;;;16.77;5.47;;;;;;;;;;6309398;22;20026;-93
2022/11/28 13:38:20;;;;;;;13.55;5.45;;;;;;;;;;6314616;22;20067;-93
2022/11/28 13:41:08;;;;;;;15.13;4.63;;;;;;;;;;6316734;22;20085;-93
2022/11/28 13:43:51;;;;;;;18.70;5.90;;;;;;;;;;6309727;22;20006;-93
2022/11/28 13:46:25;;;;;;;18.63;5.93;;;;;;;;;;6310625;22;20014;-93
2022/11/28 13:48:55;;;;;;;24.80;9.00;;;;;;;;;;6311105;22;20267;-93
2022/11/28 13:51:21;;;;;;;28.85;11.20;;;;;;;;;;6310589;22;20002;-93
2022/11/28 13:53:48;;;;;;;30.60;12.63;;;;;;;;;;6310606;22;20533;-92
2022/11/28 13:56:22;;;;;;;35.15;13.00;;;;;;;;;;6310932;22;20060;-93
2022/11/28 13:58:52;;;;;;;32.45;12.82;;;;;;;;;;6310182;22;20379;-93
2022/11/28 14:01:22;;;;;;;33.92;12.52;;;;;;;;;;6310337;22;20254;-94
2022/11/28 14:04:00;;;;;;;34.05;12.52;;;;;;;;;;6309650;22;20014;-93
2022/11/28 14:06:29;;;;;;;28.52;11.13;;;;;;;;;;6309818;22;20010;-93
2022/11/28 14:09:03;;;;;;;29.45;10.75;;;;;;;;;;6337475;22;20014;-93
2022/11/28 14:11:36;;;;;;;27.92;10.75;;;;;;;;;;6310043;22;20052;-93
2022/11/28 14:14:04;;;;;;;28.07;10.90;;;;;;;;;;6310268;22;20432;-93
2022/11/28 14:16:29;;;;;;;28.20;10.68;;;;;;;;;;6310242;22;19994;-93
2022/11/28 14:18:54;;;;;;;23.67;9.80;;;;;;;;;;6310226;22;20007;-94
2022/11/28 14:21:19;;;;;;;28.47;10.23;;;;;;;;;;6310129;22;20227;-92
2022/11/28 14:23:52;;;;;;;27.30;9.90;;;;;;;;;;6310372;22;20374;-93
2022/11/28 14:26:22;;;;;;;24.92;9.88;;;;;;;;;;6311022;22;20227;-94
2022/11/28 14:28:48;;;;;;;18.92;7.35;;;;;;;;;;6338228;22;20090;-94
2022/11/28 14:31:39;;;;;;;17.42;6.00;;;;;;;;;;6309854;22;20010;-94
2022/11/28 14:34:06;;;;;;;21.98;6.25;;;;;;;;;;6315115;22;19999;-93
2022/11/28 14:36:37;;;;;;;18.77;6.57;;;;;;;;;;6320806;22;20006;-92
2022/11/28 14:39:04;;;;;;;18.63;6.57;;;;;;;;;;6326033;22;20006;-93
2022/11/28 14:41:31;;;;;;;20.20;6.70;;;;;;;;;;6310776;22;20446;-94
2022/11/28 14:44:16;;;;;;;18.00;6.07;;;;;;;;;;6308056;22;20335;-93
2022/11/28 14:47:00;;;;;;;16.88;5.78;;;;;;;;;;6255099;22;20673;-94
2022/11/28 14:49:25;;;;;;;15.73;4.90;;;;;;;;;;6307816;22;20412;-94
2022/11/28 14:51:52;;;;;;;13.98;4.57;;;;;;;;;;6309673;22;20017;-93
2022/11/28 14:54:26;;;;;;;13.60;4.20;;;;;;;;;;6334145;22;20216;-92
2022/11/28 14:56:52;;;;;;;14.77;4.32;;;;;;;;;;6335776;22;20003;-93
2022/11/28 14:59:19;;;;;;;14.48;4.43;;;;;;;;;;6309066;22;20059;-92
2022/11/28 15:01:51;;;;;;;16.40;4.15;;;;;;;;;;6336836;22;19995;-93
2022/11/28 15:04:40;;;;;;;14.27;4.60;;;;;;;;;;6338960;22;20007;-91
2022/11/28 15:07:26;;;;;;;15.63;4.07;;;;;;;;;;6339110;22;20010;-93
2022/11/28 15:10:03;;;;;;;16.13;4.32;;;;;;;;;;6338417;22;20038;-94